Time;durP1;ratioP1;P1;durP2;ratioP2;P2;SDS_P1;SDS_P2;PMS_P1;PMS_P2;Temp;Humidity;BMP_temperature;BMP_pressure;BME280_temperature;BME280_humidity;BME280_pressure;Samples;Min_cycle;Max_cycle;Signal;HPM_P1;HPM_P2
2023/09/29 00:01:32;;;;;;;22.13;16.45;;;;;;;22.74;70.61;101403.47;5026718;27;96814;-77
2023/09/29 00:03:59;;;;;;;30.95;16.60;;;;;;;22.53;70.81;101417.53;5026319;27;96844;-77
2023/09/29 00:06:25;;;;;;;22.60;16.33;;;;;;;22.56;70.59;101405.69;5028169;28;98654;-79
2023/09/29 00:08:52;;;;;;;28.52;18.17;;;;;;;22.39;71.42;101417.69;5028192;27;99422;-77
2023/09/29 00:11:18;;;;;;;26.98;17.35;;;;;;;22.37;71.89;101410.72;5027745;27;96791;-77
2023/09/29 00:13:46;;;;;;;25.73;15.85;;;;;;;22.55;71.30;101412.03;5023271;27;97522;-78
2023/09/29 00:16:12;;;;;;;25.75;16.73;;;;;;;22.39;72.28;101406.91;5027673;27;101526;-78
2023/09/29 00:18:39;;;;;;;28.05;17.02;;;;;;;22.28;72.19;101406.88;5025784;27;100072;-76
2023/09/29 00:21:06;;;;;;;29.88;17.77;;;;;;;22.15;72.41;101406.06;5026172;27;97187;-77
2023/09/29 00:23:32;;;;;;;26.45;16.70;;;;;;;22.36;72.13;101409.88;5028069;27;97558;-78
2023/09/29 00:25:59;;;;;;;28.98;16.85;;;;;;;22.58;71.00;101406.41;5024435;27;97746;-76
2023/09/29 00:28:25;;;;;;;32.38;17.42;;;;;;;22.36;71.36;101409.88;5025436;27;98939;-78
2023/09/29 00:30:53;;;;;;;32.90;17.33;;;;;;;22.31;71.55;101403.97;5024444;27;96916;-77
2023/09/29 00:33:20;;;;;;;25.38;15.50;;;;;;;22.31;71.60;101405.78;5026744;27;96840;-76
2023/09/29 00:35:47;;;;;;;26.48;16.77;;;;;;;22.43;71.13;101400.34;5026871;27;99610;-75
2023/09/29 00:38:13;;;;;;;25.08;16.00;;;;;;;22.12;71.96;101395.53;5024855;27;98880;-75
2023/09/29 00:40:40;;;;;;;22.73;15.52;;;;;;;22.29;71.67;101407.72;5027599;27;98653;-76
2023/09/29 00:43:06;;;;;;;26.27;15.60;;;;;;;22.60;70.00;101397.25;5026747;27;97238;-75
2023/09/29 00:45:34;;;;;;;21.58;15.23;;;;;;;22.33;70.75;101404.69;5027599;27;100633;-76
2023/09/29 00:48:07;;;;;;;23.52;15.57;;;;;;;22.28;70.78;101393.41;5020145;27;97616;-74
2023/09/29 00:50:34;;;;;;;25.08;15.60;;;;;;;22.49;70.27;101391.81;5027586;27;96888;-74
2023/09/29 00:53:07;;;;;;;21.80;16.92;;;;;;;22.38;70.58;101391.78;5024841;27;97012;-74
2023/09/29 00:55:36;;;;;;;24.52;16.17;;;;;;;22.47;69.98;101391.06;5026807;27;99231;-74
2023/09/29 00:58:04;;;;;;;25.73;15.98;;;;;;;22.55;69.39;101390.50;5024749;27;101701;-73
2023/09/29 01:00:32;;;;;;;21.38;15.85;;;;;;;22.51;69.36;101386.31;5023997;27;97247;-73
2023/09/29 01:02:59;;;;;;;22.13;15.82;;;;;;;22.46;69.33;101381.25;5025617;27;97523;-74
2023/09/29 01:05:29;;;;;;;23.77;15.30;;;;;;;22.56;68.97;101379.59;5025823;27;98969;-73
2023/09/29 01:07:56;;;;;;;27.90;16.23;;;;;;;22.72;68.48;101383.81;5023481;27;100127;-73
2023/09/29 01:10:24;;;;;;;28.88;17.10;;;;;;;22.67;68.33;101371.56;5025938;27;97148;-74
2023/09/29 01:12:50;;;;;;;27.42;14.57;;;;;;;22.70;68.58;101375.00;5023352;27;96945;-73
2023/09/29 01:15:19;;;;;;;28.90;17.20;;;;;;;22.63;67.96;101378.16;5026460;28;98320;-74
2023/09/29 01:17:46;;;;;;;27.25;17.00;;;;;;;22.52;68.04;101378.09;5025762;27;99192;-73
2023/09/29 01:20:24;;;;;;;28.92;16.63;;;;;;;22.37;68.37;101371.19;5028645;27;96885;-74
2023/09/29 01:22:52;;;;;;;23.30;15.75;;;;;;;22.39;68.34;101374.63;5025560;27;96720;-74
2023/09/29 01:25:20;;;;;;;24.92;17.13;;;;;;;22.28;68.52;101371.88;5028641;27;98972;-73
2023/09/29 01:27:47;;;;;;;23.02;15.88;;;;;;;22.32;69.07;101377.91;5024118;27;98725;-74
2023/09/29 01:30:16;;;;;;;24.15;16.20;;;;;;;22.12;70.04;101377.53;5022589;27;96850;-73
2023/09/29 01:32:43;;;;;;;24.75;16.95;;;;;;;21.95;71.04;101377.00;5029837;27;96979;-73
2023/09/29 01:35:11;;;;;;;25.55;15.73;;;;;;;22.05;70.71;101375.41;5027781;27;99101;-74
2023/09/29 01:37:38;;;;;;;23.08;16.27;;;;;;;21.87;70.14;101380.25;5036207;27;98716;-73
2023/09/29 01:40:06;;;;;;;23.42;16.83;;;;;;;22.06;68.45;101374.41;5040147;27;96798;-75
2023/09/29 01:42:34;;;;;;;26.20;16.13;;;;;;;22.01;67.90;101377.47;5030555;27;96804;-75
2023/09/29 01:45:01;;;;;;;22.55;15.25;;;;;;;22.02;67.42;101381.00;5028662;27;99246;-76
2023/09/29 01:47:27;;;;;;;27.67;15.40;;;;;;;22.01;67.17;101372.06;5027204;27;99597;-75
2023/09/29 01:49:54;;;;;;;23.80;16.23;;;;;;;22.00;67.02;101366.81;5030598;27;96722;-75
2023/09/29 01:52:22;;;;;;;21.25;15.23;;;;;;;22.05;66.65;101367.34;5029771;27;96974;-75
2023/09/29 01:54:49;;;;;;;21.17;14.60;;;;;;;22.11;66.75;101364.19;5013302;28;100307;-75
2023/09/29 01:57:16;;;;;;;24.63;15.25;;;;;;;22.15;66.80;101368.38;5027826;27;98930;-75
2023/09/29 01:59:44;;;;;;;25.17;16.25;;;;;;;22.22;65.94;101372.34;5029458;27;96974;-75
2023/09/29 02:02:10;;;;;;;28.23;15.93;;;;;;;22.34;65.74;101366.03;5028899;27;96941;-74
2023/09/29 02:04:36;;;;;;;26.23;15.75;;;;;;;22.45;64.68;101371.47;5027535;27;101268;-74
2023/09/29 02:07:03;;;;;;;26.38;15.52;;;;;;;22.38;64.90;101370.22;5027530;28;100173;-75
2023/09/29 02:09:30;;;;;;;19.05;13.95;;;;;;;22.04;66.44;101369.19;5030126;27;96875;-75
2023/09/29 02:11:56;;;;;;;18.80;14.45;;;;;;;22.08;66.59;101372.50;5030703;28;96948;-74
2023/09/29 02:14:23;;;;;;;20.85;14.02;;;;;;;21.93;66.46;101368.19;5027986;27;100075;-74
2023/09/29 02:16:51;;;;;;;22.27;14.90;;;;;;;22.01;65.79;101369.38;5028926;27;98759;-75
2023/09/29 02:19:17;;;;;;;23.73;14.00;;;;;;;22.19;64.98;101369.84;5026897;27;97249;-74
2023/09/29 02:21:45;;;;;;;18.80;13.00;;;;;;;22.14;63.93;101363.97;5028908;28;97161;-73
2023/09/29 02:24:12;;;;;;;23.42;13.02;;;;;;;21.95;63.87;101361.72;5028661;27;98653;-74
2023/09/29 02:26:39;;;;;;;21.83;13.32;;;;;;;21.86;64.64;101357.88;5029350;28;98541;-75
2023/09/29 02:29:07;;;;;;;17.75;13.15;;;;;;;22.01;63.71;101360.44;5027505;27;97454;-75
2023/09/29 02:31:36;;;;;;;20.17;13.65;;;;;;;21.91;64.06;101359.38;5028528;27;96844;-76
2023/09/29 02:34:04;;;;;;;19.55;13.80;;;;;;;22.01;63.76;101363.16;5027701;27;101099;-76
2023/09/29 02:36:30;;;;;;;18.35;13.57;;;;;;;21.99;63.47;101352.47;5026431;27;99247;-76
2023/09/29 02:38:57;;;;;;;19.65;13.98;;;;;;;22.03;63.80;101354.00;5029186;27;96780;-74
2023/09/29 02:41:23;;;;;;;19.20;13.95;;;;;;;21.93;63.73;101347.53;5025567;27;97309;-75
2023/09/29 02:43:50;;;;;;;20.63;14.02;;;;;;;21.93;63.78;101350.22;5028358;27;98923;-75
2023/09/29 02:46:16;;;;;;;19.02;13.80;;;;;;;21.93;63.36;101346.66;5028406;27;96903;-75
2023/09/29 02:48:43;;;;;;;19.77;13.90;;;;;;;21.94;63.32;101345.69;5027141;27;97502;-74
2023/09/29 02:51:18;;;;;;;19.20;14.85;;;;;;;21.89;63.84;101343.34;5029139;28;96773;-75
2023/09/29 02:53:48;;;;;;;19.55;14.32;;;;;;;21.76;63.81;101339.84;5024885;27;98882;-75
2023/09/29 02:56:16;;;;;;;24.25;14.43;;;;;;;21.81;63.62;101338.53;5022856;27;99814;-75
2023/09/29 02:58:43;;;;;;;20.27;14.30;;;;;;;21.73;64.65;101335.53;5028487;27;96975;-75
2023/09/29 03:01:12;;;;;;;23.30;15.00;;;;;;;21.80;63.75;101336.81;5026398;27;97132;-75
2023/09/29 03:03:43;;;;;;;19.70;14.13;;;;;;;21.66;64.49;101344.19;5026523;27;98956;-74
2023/09/29 03:06:10;;;;;;;20.35;14.13;;;;;;;21.76;64.20;101335.31;5028718;27;98763;-74
2023/09/29 03:08:38;;;;;;;21.92;14.63;;;;;;;21.68;65.66;101348.47;5024473;27;97707;-74
2023/09/29 03:11:09;;;;;;;19.13;13.10;;;;;;;21.65;66.54;101337.94;5028231;27;96970;-73
2023/09/29 03:13:37;;;;;;;18.90;14.15;;;;;;;21.38;68.73;101339.91;5025829;27;99353;-75
2023/09/29 03:16:04;;;;;;;21.85;14.13;;;;;;;21.32;68.34;101335.84;5027242;27;99332;-75
2023/09/29 03:18:30;;;;;;;23.08;14.20;;;;;;;21.43;68.10;101341.31;5028570;27;96775;-76
2023/09/29 03:20:58;;;;;;;22.73;14.20;;;;;;;21.54;67.15;101337.84;5028188;27;97042;-76
2023/09/29 03:23:26;;;;;;;24.35;14.77;;;;;;;21.63;66.92;101342.56;5026336;27;98933;-75
2023/09/29 03:25:54;;;;;;;20.13;15.10;;;;;;;21.43;66.67;101337.75;5028459;27;99455;-75
2023/09/29 03:28:21;;;;;;;22.23;14.95;;;;;;;21.76;65.58;101348.78;5023389;27;98709;-75
2023/09/29 03:30:48;;;;;;;20.02;15.88;;;;;;;21.70;65.88;101346.53;5015785;27;97944;-75
2023/09/29 03:33:14;;;;;;;23.17;14.57;;;;;;;21.53;65.87;101346.88;5022916;27;99315;-75
2023/09/29 03:35:41;;;;;;;21.58;15.43;;;;;;;21.43;65.68;101344.00;5027227;27;99388;-75
2023/09/29 03:38:08;;;;;;;23.00;16.55;;;;;;;21.78;64.30;101337.91;5027834;27;97102;-75
2023/09/29 03:40:34;;;;;;;24.00;16.90;;;;;;;21.63;64.37;101337.19;5025810;27;97045;-76
2023/09/29 03:43:03;;;;;;;24.85;16.65;;;;;;;21.55;64.40;101330.63;5026290;27;99942;-76
2023/09/29 03:45:31;;;;;;;25.00;17.25;;;;;;;21.69;63.83;101327.81;5023906;27;101662;-76
2023/09/29 03:47:57;;;;;;;21.40;16.48;;;;;;;21.55;64.05;101336.00;5027848;27;96782;-76
2023/09/29 03:50:24;;;;;;;27.80;16.42;;;;;;;21.55;64.05;101326.13;5020644;27;96828;-76
2023/09/29 03:52:50;;;;;;;25.45;16.40;;;;;;;21.52;63.91;101331.72;5019958;27;98188;-76
2023/09/29 03:55:17;;;;;;;28.42;16.83;;;;;;;21.42;64.31;101331.50;5026845;27;101326;-76
2023/09/29 03:57:45;;;;;;;20.48;16.02;;;;;;;21.55;64.22;101331.50;5026389;27;96861;-74
2023/09/29 04:00:15;;;;;;;27.05;16.42;;;;;;;21.46;63.91;101332.16;5023963;27;100600;-76
2023/09/29 04:02:42;;;;;;;21.35;16.08;;;;;;;21.46;63.96;101333.00;5025135;27;101845;-77
2023/09/29 04:05:09;;;;;;;26.58;16.27;;;;;;;21.42;63.76;101333.34;5027943;27;98817;-74
2023/09/29 04:07:36;;;;;;;23.00;15.55;;;;;;;21.31;64.32;101328.75;5026869;27;96936;-76
2023/09/29 04:10:04;;;;;;;24.08;15.65;;;;;;;21.33;64.55;101339.38;5028039;27;98429;-76
2023/09/29 04:12:30;;;;;;;22.88;16.33;;;;;;;21.39;63.88;101336.25;5026876;27;98888;-76
2023/09/29 04:14:56;;;;;;;23.27;14.88;;;;;;;21.44;63.98;101344.84;5025821;27;98953;-75
2023/09/29 04:17:24;;;;;;;23.40;14.77;;;;;;;21.44;64.21;101336.78;5026090;27;96835;-75
2023/09/29 04:19:51;;;;;;;29.25;16.58;;;;;;;21.45;63.71;101335.81;5016425;27;97864;-76
2023/09/29 04:22:17;;;;;;;19.35;15.35;;;;;;;21.32;64.31;101332.28;5026902;27;99246;-76
2023/09/29 04:24:43;;;;;;;22.77;15.60;;;;;;;21.29;64.31;101330.66;5020593;27;97862;-75
2023/09/29 04:27:10;;;;;;;25.05;15.48;;;;;;;21.33;64.27;101336.69;5027606;27;97420;-76
2023/09/29 04:29:36;;;;;;;28.98;15.13;;;;;;;21.24;64.52;101340.03;5026327;27;97703;-75
2023/09/29 04:32:04;;;;;;;24.00;15.02;;;;;;;21.26;65.33;101352.41;5025487;27;99083;-75
2023/09/29 04:34:31;;;;;;;22.40;15.90;;;;;;;21.14;66.23;101353.22;5025042;27;98830;-75
2023/09/29 04:36:58;;;;;;;18.90;15.07;;;;;;;21.23;66.36;101344.53;5025294;27;96795;-76
2023/09/29 04:39:24;;;;;;;19.30;15.23;;;;;;;21.30;66.54;101344.97;5027610;27;96924;-75
2023/09/29 04:41:51;;;;;;;29.63;16.77;;;;;;;21.29;65.79;101345.94;5026771;27;98941;-76
2023/09/29 04:44:18;;;;;;;21.35;14.23;;;;;;;21.27;64.62;101343.34;5024357;27;102262;-77
2023/09/29 04:46:45;;;;;;;19.52;14.50;;;;;;;21.22;64.61;101333.88;5026897;27;96975;-76
2023/09/29 04:49:11;;;;;;;20.08;14.27;;;;;;;21.17;64.03;101333.38;5027711;27;97167;-76
2023/09/29 04:51:39;;;;;;;22.13;14.23;;;;;;;21.07;64.14;101335.78;5019719;27;99147;-76
2023/09/29 04:54:06;;;;;;;22.30;13.93;;;;;;;20.97;64.35;101335.59;5022620;27;97730;-77
2023/09/29 04:56:32;;;;;;;22.33;14.40;;;;;;;20.99;64.77;101332.81;5031055;27;96916;-76
2023/09/29 04:58:59;;;;;;;16.67;12.80;;;;;;;21.33;64.51;101315.19;5030558;27;97174;-76
2023/09/29 05:01:26;;;;;;;20.25;13.73;;;;;;;21.07;64.45;101319.66;5029919;27;99009;-75
2023/09/29 05:03:52;;;;;;;19.35;14.60;;;;;;;21.26;64.04;101325.53;5026365;27;99330;-77
2023/09/29 05:06:20;;;;;;;18.45;12.82;;;;;;;21.16;64.21;101329.81;5022648;27;97997;-77
2023/09/29 05:08:48;;;;;;;22.20;13.80;;;;;;;20.82;65.27;101344.69;5028979;27;96947;-74
2023/09/29 05:11:21;;;;;;;20.33;12.93;;;;;;;20.93;66.30;101333.22;5028358;27;99519;-73
2023/09/29 05:13:47;;;;;;;21.30;14.05;;;;;;;20.91;64.99;101349.44;5026037;27;99473;-74
2023/09/29 05:16:14;;;;;;;23.23;13.55;;;;;;;21.11;64.00;101342.69;5026317;27;97185;-75
2023/09/29 05:18:40;;;;;;;20.20;13.75;;;;;;;21.01;63.85;101339.78;5039871;27;97063;-75
2023/09/29 05:21:07;;;;;;;21.27;13.45;;;;;;;21.17;63.61;101339.59;5031063;27;99262;-75
2023/09/29 05:23:33;;;;;;;21.50;13.35;;;;;;;21.17;64.00;101338.75;5025505;27;99019;-76
2023/09/29 05:26:02;;;;;;;23.08;13.82;;;;;;;21.23;63.33;101343.69;5030558;27;97272;-77
2023/09/29 05:28:29;;;;;;;19.50;13.80;;;;;;;21.19;63.25;101339.50;5027430;27;96961;-76
2023/09/29 05:30:56;;;;;;;18.02;13.60;;;;;;;21.19;62.34;101343.06;5023556;27;98943;-77
2023/09/29 05:33:21;;;;;;;14.13;12.13;;;;;;;21.06;62.93;101345.72;5028886;27;101536;-76
2023/09/29 05:35:47;;;;;;;;;;;;;;;21.06;63.43;101345.72;5027576;27;98537;-78
2023/09/29 05:38:14;;;;;;;23.65;12.65;;;;;;;21.28;63.06;101342.38;5026356;27;96992;-77
2023/09/29 05:40:40;;;;;;;19.17;12.10;;;;;;;21.32;62.16;101329.59;5029753;27;98910;-78
2023/09/29 05:43:10;;;;;;;20.38;12.30;;;;;;;21.38;62.03;101337.22;5031918;28;98818;-77
2023/09/29 05:45:36;;;;;;;19.35;11.05;;;;;;;21.46;61.44;101332.16;5032121;27;97436;-75
2023/09/29 05:48:03;;;;;;;17.45;11.80;;;;;;;21.73;60.32;101340.03;5032003;27;97806;-76
2023/09/29 05:50:29;;;;;;;24.55;12.20;;;;;;;21.89;60.03;101335.28;5031515;27;99069;-77
2023/09/29 05:52:57;;;;;;;13.20;11.40;;;;;;;22.13;58.94;101346.09;5032136;27;98883;-75
2023/09/29 05:55:23;;;;;;;22.20;11.40;;;;;;;22.34;58.32;101340.94;5032583;27;96819;-74
2023/09/29 05:57:50;;;;;;;22.40;11.18;;;;;;;22.22;58.68;101334.66;5029857;27;97203;-74
2023/09/29 06:00:19;;;;;;;20.90;10.90;;;;;;;22.23;58.34;101344.44;5030072;28;97720;-75
2023/09/29 06:02:46;;;;;;;18.65;11.32;;;;;;;22.25;58.50;101350.59;5030566;27;100358;-75
2023/09/29 06:05:13;;;;;;;18.90;11.93;;;;;;;22.36;58.23;101347.94;5030547;27;97072;-75
2023/09/29 06:07:39;;;;;;;20.05;10.38;;;;;;;22.52;57.24;101353.88;5029053;27;96782;-75
2023/09/29 06:10:07;;;;;;;18.17;10.55;;;;;;;22.22;57.91;101354.34;5030560;27;98905;-75
2023/09/29 06:12:34;;;;;;;18.60;10.25;;;;;;;22.31;58.13;101357.34;5025144;27;98763;-74
2023/09/29 06:15:01;;;;;;;14.88;10.50;;;;;;;22.54;57.07;101365.38;5030187;28;96847;-76
2023/09/29 06:17:28;;;;;;;17.65;10.48;;;;;;;22.59;57.16;101363.19;5030095;27;96821;-74
2023/09/29 06:19:55;;;;;;;17.48;10.15;;;;;;;22.43;57.36;101356.41;5030203;27;101534;-76
2023/09/29 06:22:22;;;;;;;16.23;9.20;;;;;;;22.64;56.48;101361.00;5022696;27;99201;-71
2023/09/29 06:24:48;;;;;;;16.58;10.38;;;;;;;22.60;56.57;101359.53;5024213;27;96907;-72
2023/09/29 06:27:15;;;;;;;15.50;8.80;;;;;;;22.95;55.65;101351.47;5028853;27;97275;-72
2023/09/29 06:29:49;;;;;;;18.50;9.32;;;;;;;22.91;56.14;101357.19;5026546;27;101212;-72
2023/09/29 06:32:16;;;;;;;18.33;8.55;;;;;;;22.89;55.70;101359.19;5028894;27;98445;-72
2023/09/29 06:34:44;;;;;;;17.67;9.23;;;;;;;23.17;55.00;101360.59;5027879;27;97443;-73
2023/09/29 06:37:10;;;;;;;14.82;9.18;;;;;;;23.08;55.17;101355.91;5028346;27;97043;-71
2023/09/29 06:39:37;;;;;;;20.15;8.82;;;;;;;22.84;55.52;101348.72;5028276;27;99006;-71
2023/09/29 06:42:03;;;;;;;15.82;9.10;;;;;;;22.90;55.68;101350.13;5027089;27;98917;-73
2023/09/29 06:44:32;;;;;;;20.83;9.23;;;;;;;22.74;55.84;101357.66;5027925;27;98527;-73
2023/09/29 06:46:58;;;;;;;19.00;8.88;;;;;;;22.82;55.47;101353.41;5027619;27;97470;-72
2023/09/29 06:49:25;;;;;;;17.83;8.95;;;;;;;23.02;55.20;101354.56;5027770;27;99116;-72
2023/09/29 06:51:53;;;;;;;17.35;9.07;;;;;;;23.08;55.06;101359.47;5026145;27;98909;-73
2023/09/29 06:54:19;;;;;;;19.98;8.98;;;;;;;23.28;54.52;101369.53;5027758;27;97850;-73
2023/09/29 06:56:46;;;;;;;11.82;8.60;;;;;;;23.03;55.25;101367.91;5026505;27;100733;-73
2023/09/29 06:59:12;;;;;;;10.55;7.97;;;;;;;23.18;55.28;101368.53;5025417;28;99205;-74
2023/09/29 07:01:39;;;;;;;12.75;8.07;;;;;;;23.40;54.51;101367.72;5017117;27;100628;-73
2023/09/29 07:04:06;;;;;;;15.35;8.82;;;;;;;23.57;54.14;101377.19;5027014;28;97131;-73
2023/09/29 07:06:32;;;;;;;15.43;8.32;;;;;;;23.81;53.22;101364.44;5025908;28;97648;-71
2023/09/29 07:09:00;;;;;;;16.48;9.35;;;;;;;23.61;54.42;101365.19;5027482;28;98799;-72
2023/09/29 07:11:27;;;;;;;16.20;8.35;;;;;;;23.86;53.39;101366.75;5025906;27;99170;-73
2023/09/29 07:13:53;;;;;;;14.07;8.70;;;;;;;23.73;53.35;101366.88;5014222;27;97749;-73
2023/09/29 07:16:20;;;;;;;19.50;8.15;;;;;;;23.94;53.13;101377.78;5027775;27;97245;-73
2023/09/29 07:18:47;;;;;;;19.98;8.07;;;;;;;23.87;53.03;101374.72;5018967;27;98811;-73
2023/09/29 07:21:14;;;;;;;15.60;8.00;;;;;;;24.13;52.14;101376.16;5027115;27;98784;-73
2023/09/29 07:23:40;;;;;;;21.90;7.75;;;;;;;24.21;52.61;101376.41;5024058;27;96971;-74
2023/09/29 07:26:08;;;;;;;21.65;8.90;;;;;;;24.08;52.18;101372.13;5027972;27;96895;-72
2023/09/29 07:28:35;;;;;;;12.88;7.57;;;;;;;24.20;51.98;101371.13;5024719;27;99408;-73
2023/09/29 07:31:01;;;;;;;14.57;7.68;;;;;;;24.07;52.24;101368.56;5027503;27;101582;-73
2023/09/29 07:33:28;;;;;;;14.73;7.53;;;;;;;24.36;52.01;101370.69;5025381;27;97277;-73
2023/09/29 07:35:54;;;;;;;14.93;7.18;;;;;;;24.73;50.96;101372.03;5021558;27;97043;-73
2023/09/29 07:38:21;;;;;;;18.15;7.65;;;;;;;25.15;49.94;101362.09;5025653;27;99325;-73
2023/09/29 07:40:48;;;;;;;10.48;6.97;;;;;;;24.87;50.30;101368.16;5030119;27;98878;-73
2023/09/29 07:43:15;;;;;;;23.08;8.52;;;;;;;25.09;49.75;101359.06;5028879;27;96816;-73
2023/09/29 07:45:42;;;;;;;14.23;7.10;;;;;;;25.34;48.96;101369.47;5033444;27;96770;-73
2023/09/29 07:48:08;;;;;;;17.40;7.65;;;;;;;25.36;48.78;101372.91;5032028;27;101998;-72
2023/09/29 07:50:34;;;;;;;13.15;7.00;;;;;;;25.57;48.44;101371.03;5015955;27;98772;-72
2023/09/29 07:53:01;;;;;;;15.98;6.60;;;;;;;25.51;48.87;101370.69;5007544;27;98515;-72
2023/09/29 07:55:27;;;;;;;14.43;6.85;;;;;;;25.76;47.98;101373.81;5009247;27;97654;-72
2023/09/29 07:57:53;;;;;;;9.43;6.03;;;;;;;25.63;47.94;101367.78;5015141;27;100840;-72
2023/09/29 08:00:21;;;;;;;11.32;6.60;;;;;;;25.73;47.92;101365.97;5017639;27;101467;-76
2023/09/29 08:02:48;;;;;;;14.38;6.30;;;;;;;26.18;47.00;101365.53;5018771;27;99643;-75
2023/09/29 08:05:15;;;;;;;9.68;5.70;;;;;;;26.03;47.11;101364.22;5027208;27;97171;-75
2023/09/29 08:07:42;;;;;;;12.13;6.38;;;;;;;26.25;46.84;101365.88;5026443;27;99286;-76
2023/09/29 08:10:10;;;;;;;11.25;5.63;;;;;;;26.20;46.98;101358.09;5016504;27;100063;-77
2023/09/29 08:12:37;;;;;;;15.18;6.43;;;;;;;26.06;47.06;101355.78;5022980;27;97016;-75
2023/09/29 08:15:05;;;;;;;16.20;7.05;;;;;;;26.28;46.87;101357.44;5027815;27;97570;-76
2023/09/29 08:17:32;;;;;;;10.38;6.00;;;;;;;25.98;47.79;101352.94;5030020;27;102245;-77
2023/09/29 08:19:59;;;;;;;17.10;7.20;;;;;;;25.96;47.36;101350.38;5026628;27;97818;-77
2023/09/29 08:22:25;;;;;;;20.30;6.53;;;;;;;26.13;47.88;101359.66;5024307;27;98069;-77
2023/09/29 08:24:51;;;;;;;9.70;6.22;;;;;;;25.92;48.21;101354.38;5024685;27;97181;-77
2023/09/29 08:27:18;;;;;;;16.80;5.88;;;;;;;26.29;47.70;101359.16;5018015;27;98942;-77
2023/09/29 08:29:44;;;;;;;13.38;6.43;;;;;;;26.51;47.35;101358.91;5030388;27;98786;-77
2023/09/29 08:32:11;;;;;;;10.85;5.28;;;;;;;26.55;47.08;101355.75;5031843;27;97009;-76
2023/09/29 08:34:39;;;;;;;14.02;6.35;;;;;;;26.20;47.25;101367.09;5031139;27;96983;-76
2023/09/29 08:37:05;;;;;;;12.98;6.18;;;;;;;26.28;47.42;101360.16;5031939;27;98967;-77
2023/09/29 08:39:31;;;;;;;11.48;6.15;;;;;;;26.24;47.80;101356.88;5023591;27;98790;-78
2023/09/29 08:42:05;;;;;;;7.78;5.97;;;;;;;26.10;47.82;101362.66;5024561;27;97370;-77
2023/09/29 08:44:34;;;;;;;8.52;5.28;;;;;;;26.28;47.96;101371.84;5028753;27;96934;-75
2023/09/29 08:47:01;;;;;;;15.70;6.07;;;;;;;26.76;46.95;101368.28;5032464;27;98939;-76
2023/09/29 08:49:29;;;;;;;9.65;5.78;;;;;;;26.28;47.46;101366.41;5022309;27;98795;-74
2023/09/29 08:51:59;;;;;;;12.35;6.03;;;;;;;26.58;47.04;101362.75;5026525;27;98917;-73
2023/09/29 08:54:25;;;;;;;10.07;5.68;;;;;;;26.73;46.49;101366.72;5034037;27;97561;-74
2023/09/29 08:56:52;;;;;;;10.63;5.82;;;;;;;26.72;46.96;101364.13;5036100;27;101294;-73
2023/09/29 08:59:18;;;;;;;11.15;5.78;;;;;;;26.65;46.94;101372.00;5027291;27;101555;-73
2023/09/29 09:01:46;;;;;;;10.45;5.80;;;;;;;26.74;46.85;101373.00;5026353;27;96844;-73
2023/09/29 09:04:12;;;;;;;13.80;5.57;;;;;;;26.88;46.83;101383.41;5029857;27;97433;-73
2023/09/29 09:06:40;;;;;;;11.05;5.63;;;;;;;27.08;46.96;101392.41;5033825;27;98932;-72
2023/09/29 09:09:09;;;;;;;8.55;5.15;;;;;;;26.98;47.23;101397.00;5031695;27;99722;-72
2023/09/29 09:11:42;;;;;;;8.00;4.82;;;;;;;26.63;47.65;101384.84;5030796;27;98419;-72
2023/09/29 09:14:10;;;;;;;11.05;5.70;;;;;;;26.19;48.80;101387.03;5029809;27;96886;-72
2023/09/29 09:16:40;;;;;;;10.98;5.15;;;;;;;26.72;47.93;101388.53;5027316;27;99453;-72
2023/09/29 09:19:10;;;;;;;7.63;5.25;;;;;;;26.54;48.32;101385.69;5032640;27;101191;-73
2023/09/29 09:21:36;;;;;;;12.00;6.60;;;;;;;26.49;48.81;101380.72;5035209;27;97009;-76
2023/09/29 09:24:03;;;;;;;8.20;5.35;;;;;;;26.50;49.10;101398.69;5032565;27;97671;-77
2023/09/29 09:26:31;;;;;;;9.32;5.70;;;;;;;26.54;48.62;101386.56;5036090;27;97780;-76
2023/09/29 09:29:07;;;;;;;11.60;5.53;;;;;;;26.83;47.90;101383.84;5025783;27;99003;-73
2023/09/29 09:31:42;;;;;;;10.85;6.13;;;;;;;27.04;47.58;101386.44;5029339;27;96825;-76
2023/09/29 09:34:09;;;;;;;10.10;5.32;;;;;;;26.85;47.68;101391.81;5031350;27;96699;-77
2023/09/29 09:36:45;;;;;;;12.07;5.50;;;;;;;26.87;48.28;101384.41;5035663;27;102222;-76
2023/09/29 09:39:11;;;;;;;;;;;;;;;26.79;48.59;101392.41;5029713;27;99104;-76
2023/09/29 09:41:42;;;;;;;13.73;5.70;;;;;;;26.86;48.41;101390.81;5027015;27;97062;-77
2023/09/29 09:44:09;;;;;;;16.75;5.50;;;;;;;26.94;47.82;101386.44;5030166;27;97359;-76
2023/09/29 09:46:40;;;;;;;9.95;5.25;;;;;;;27.10;47.79;101383.13;5025293;27;98868;-76
2023/09/29 09:49:13;;;;;;;16.17;5.93;;;;;;;27.12;47.85;101383.81;5030890;27;99005;-76
2023/09/29 09:51:42;;;;;;;11.90;5.32;;;;;;;27.19;47.63;101384.94;5028575;27;97266;-76
2023/09/29 09:54:11;;;;;;;12.77;5.10;;;;;;;27.48;46.93;101389.44;5029588;27;96847;-76
2023/09/29 09:56:45;;;;;;;9.60;5.32;;;;;;;27.28;47.35;101386.78;5031783;27;102247;-76
2023/09/29 09:59:13;;;;;;;10.65;5.13;;;;;;;27.69;46.48;101381.97;5031417;27;98824;-76
2023/09/29 10:01:40;;;;;;;11.23;4.97;;;;;;;27.61;46.64;101371.00;5028505;27;96789;-77
2023/09/29 10:04:12;;;;;;;12.07;5.18;;;;;;;27.64;45.78;101378.84;5026978;27;98671;-76
2023/09/29 10:06:39;;;;;;;12.88;5.22;;;;;;;27.44;46.81;101377.19;5028987;28;101142;-76
2023/09/29 10:09:09;;;;;;;11.02;4.95;;;;;;;27.55;46.59;101383.31;5032715;27;100513;-75
2023/09/29 10:11:35;;;;;;;11.25;5.55;;;;;;;27.79;46.21;101382.78;5028045;27;96857;-76
2023/09/29 10:14:04;;;;;;;20.92;5.80;;;;;;;27.75;45.91;101384.09;5027768;27;98037;-76
2023/09/29 10:16:31;;;;;;;11.85;5.43;;;;;;;27.87;46.00;101382.88;5027831;28;99617;-76
2023/09/29 10:18:59;;;;;;;12.93;5.47;;;;;;;27.66;46.70;101382.25;5027136;27;98776;-75
2023/09/29 10:21:28;;;;;;;15.10;6.22;;;;;;;27.82;46.74;101392.50;5022771;27;96753;-75
2023/09/29 10:23:54;;;;;;;13.10;5.63;;;;;;;27.91;46.26;101387.00;5024691;27;97089;-75
2023/09/29 10:26:26;;;;;;;11.90;5.63;;;;;;;27.70;47.32;101386.38;5025713;27;98909;-74
2023/09/29 10:29:01;;;;;;;12.48;5.28;;;;;;;27.47;47.29;101376.88;5027937;27;101340;-76
2023/09/29 10:31:29;;;;;;;8.20;5.40;;;;;;;27.59;46.60;101378.44;5024921;27;96883;-75
2023/09/29 10:33:56;;;;;;;7.28;5.10;;;;;;;27.58;46.97;101377.56;5028984;27;97431;-75
2023/09/29 10:36:24;;;;;;;12.15;5.47;;;;;;;27.47;47.17;101379.59;5025467;27;101162;-76
2023/09/29 10:38:53;;;;;;;11.93;5.43;;;;;;;27.88;46.42;101389.19;5027730;27;98512;-76
2023/09/29 10:41:21;;;;;;;15.65;4.95;;;;;;;27.89;46.31;101380.88;5022116;28;97241;-76
2023/09/29 10:43:49;;;;;;;11.88;5.38;;;;;;;28.25;45.79;101389.13;5025631;27;97424;-77
2023/09/29 10:46:16;;;;;;;11.32;5.22;;;;;;;28.58;45.00;101387.59;5028685;27;99178;-76
2023/09/29 10:48:48;;;;;;;14.43;5.50;;;;;;;28.59;44.66;101392.88;5027344;27;98956;-75
2023/09/29 10:51:22;;;;;;;10.20;5.18;;;;;;;28.83;44.47;101384.97;5022114;27;100192;-75
2023/09/29 10:53:49;;;;;;;11.65;5.45;;;;;;;29.14;43.59;101384.53;5032814;27;97288;-75
2023/09/29 10:56:20;;;;;;;10.25;4.97;;;;;;;28.57;44.47;101394.03;5025020;27;99351;-76
2023/09/29 10:58:48;;;;;;;8.23;5.38;;;;;;;29.00;43.79;101382.38;5027364;27;98882;-76
2023/09/29 11:01:19;;;;;;;13.45;6.13;;;;;;;28.86;43.72;101378.38;5023793;27;96990;-76
2023/09/29 11:03:48;;;;;;;13.90;6.45;;;;;;;28.40;44.50;101379.44;5031866;27;98275;-74
2023/09/29 11:06:17;;;;;;;12.13;5.20;;;;;;;28.63;44.46;101377.94;5027167;27;99420;-74
2023/09/29 11:08:52;;;;;;;8.50;4.82;;;;;;;28.27;45.11;101370.81;5026892;27;98776;-76
2023/09/29 11:11:19;;;;;;;15.18;6.03;;;;;;;28.31;44.90;101369.47;5030391;27;97045;-76
2023/09/29 11:13:56;;;;;;;11.95;5.65;;;;;;;28.35;45.19;101373.63;5009266;28;96736;-76